Aviation Digital Data Service (ADDS)

Output produced by METARs form (1027 UTC 16 August 2018)
found at http://aviationweather.gov/adds/metars/
 
KMLU 160532Z 1606/1706 17003KT P6SM SCT250 
     FM161600 23007KT P6SM FEW040 SCT250 
     FM161900 23007KT P6SM SCT060 SCT250 
     FM170200 18003KT P6SM FEW060 SCT250